Time;durP1;ratioP1;P1;durP2;ratioP2;P2;SDS_P1;SDS_P2;PMS_P1;PMS_P2;Temp;Humidity;BMP_temperature;BMP_pressure;BME280_temperature;BME280_humidity;BME280_pressure;Samples;Min_cycle;Max_cycle;Signal;HPM_P1;HPM_P2
2021/11/17 02:28:00;;;;;;;33.80;9.68;;;;;;;13.79;49.09;101803.94;4977699;28;20072;-61
2021/11/17 02:30:28;;;;;;;29.92;10.35;;;;;;;13.78;49.90;101791.44;4966740;28;20034;-61
2021/11/17 02:33:22;;;;;;;37.97;11.65;;;;;;;13.72;49.11;101781.19;4997119;28;20106;-61
2021/11/17 02:36:14;;;;;;;36.03;10.68;;;;;;;13.75;49.84;101797.09;4995811;28;20117;-61
2021/11/17 02:39:03;;;;;;;33.55;10.73;;;;;;;13.73;48.81;101783.75;4996726;28;20101;-61
2021/11/17 02:41:28;;;;;;;32.25;10.50;;;;;;;13.70;49.42;101783.16;4995480;28;20080;-61
2021/11/17 02:44:02;;;;;;;31.40;10.80;;;;;;;13.67;50.30;101788.78;4996909;28;20494;-62
2021/11/17 02:46:34;;;;;;;26.63;9.98;;;;;;;13.66;49.17;101792.44;4996071;28;20022;-61
2021/11/17 02:49:28;;;;;;;28.83;10.30;;;;;;;13.68;50.34;101790.50;4995609;28;20038;-61
2021/11/17 02:52:09;;;;;;;40.22;10.82;;;;;;;13.71;49.69;101766.00;4988916;28;20070;-61
2021/11/17 02:54:44;;;;;;;24.35;9.70;;;;;;;13.69;49.62;101749.97;4995698;28;20539;-61
2021/11/17 02:57:31;;;;;;;30.30;9.73;;;;;;;13.66;49.80;101761.00;4995396;28;20100;-61
2021/11/17 03:00:05;;;;;;;32.05;10.00;;;;;;;13.62;49.72;101758.69;4996681;28;20026;-61
2021/11/17 03:02:52;;;;;;;26.50;10.75;;;;;;;13.56;49.53;101780.72;4996611;28;20437;-61
2021/11/17 03:05:23;;;;;;;33.97;10.02;;;;;;;13.56;50.08;101786.97;4996480;28;20026;-61
2021/11/17 03:08:07;;;;;;;27.02;9.15;;;;;;;13.59;49.36;101796.63;4996566;28;20030;-62
2021/11/17 03:11:03;;;;;;;31.08;9.85;;;;;;;13.63;49.62;101798.06;4996603;28;20034;-61
2021/11/17 03:13:56;;;;;;;31.30;10.88;;;;;;;13.68;49.21;101795.91;4989149;28;20430;-61
2021/11/17 03:16:28;;;;;;;37.70;11.32;;;;;;;13.72;49.11;101797.34;4996140;28;20101;-61
2021/11/17 03:19:21;;;;;;;32.60;12.18;;;;;;;13.75;50.15;101803.34;4996829;28;20038;-61
2021/11/17 03:22:06;;;;;;;29.70;9.65;;;;;;;13.76;50.11;101793.41;4996823;28;20030;-61
2021/11/17 03:24:48;;;;;;;36.85;10.77;;;;;;;13.83;50.00;101803.56;4980078;28;20022;-61
2021/11/17 03:27:32;;;;;;;28.02;10.68;;;;;;;13.85;50.10;101808.81;4994865;28;20046;-61
2021/11/17 03:30:16;;;;;;;29.15;10.65;;;;;;;13.90;50.22;101801.22;4996191;28;20506;-61
2021/11/17 03:33:10;;;;;;;34.90;10.63;;;;;;;13.92;50.44;101800.13;4995882;28;20468;-61
2021/11/17 03:36:07;;;;;;;28.55;10.52;;;;;;;13.95;49.87;101804.38;4996264;28;20018;-60
2021/11/17 03:38:43;;;;;;;31.77;11.13;;;;;;;13.98;50.23;101810.38;4992094;28;20442;-61
2021/11/17 03:41:23;;;;;;;34.63;10.68;;;;;;;14.01;49.88;101811.97;4994610;28;20034;-60
2021/11/17 03:43:57;;;;;;;26.60;9.73;;;;;;;14.04;50.10;101809.03;4996027;28;20062;-61
2021/11/17 03:46:42;;;;;;;32.95;10.18;;;;;;;14.05;50.10;101816.09;4994464;28;20022;-60
2021/11/17 03:49:23;;;;;;;27.08;10.07;;;;;;;14.06;50.20;101823.22;4995831;28;20026;-60
2021/11/17 03:51:54;;;;;;;33.30;10.52;;;;;;;14.05;50.18;101821.50;4995817;28;20026;-61
2021/11/17 03:54:42;;;;;;;35.10;10.90;;;;;;;14.06;50.23;101833.13;4995754;28;20026;-60
2021/11/17 03:57:14;;;;;;;33.45;10.13;;;;;;;14.07;49.54;101830.28;4993503;28;20022;-60
2021/11/17 03:59:42;;;;;;;37.22;11.82;;;;;;;14.08;50.01;101821.22;4995529;28;20505;-60
2021/11/17 04:02:53;;;;;;;28.23;9.85;;;;;;;14.05;50.15;101815.25;4994247;28;20037;-60
2021/11/17 04:05:24;;;;;;;29.50;11.45;;;;;;;14.03;49.69;101823.47;4972472;28;20045;-60
2021/11/17 04:08:05;;;;;;;28.48;10.65;;;;;;;14.02;50.55;101821.75;4995838;28;20109;-60
2021/11/17 04:10:43;;;;;;;31.92;10.63;;;;;;;14.01;49.50;101834.34;4994433;28;20036;-60
2021/11/17 04:13:47;;;;;;;31.00;10.90;;;;;;;14.02;50.28;101827.13;4995150;28;20030;-60
2021/11/17 04:16:18;;;;;;;30.52;10.02;;;;;;;14.02;49.91;101821.75;4992691;28;20034;-60
2021/11/17 04:18:53;;;;;;;27.10;10.18;;;;;;;14.01;49.09;101817.34;4995095;28;20181;-61
2021/11/17 04:21:31;;;;;;;32.00;9.90;;;;;;;13.99;50.44;101833.63;4993797;28;20117;-60
2021/11/17 04:24:17;;;;;;;32.20;11.43;;;;;;;14.00;50.24;101834.50;4995135;28;20471;-60
2021/11/17 04:27:14;;;;;;;24.88;10.63;;;;;;;13.97;49.69;101818.56;4993630;28;20472;-60
2021/11/17 04:29:54;;;;;;;29.83;10.60;;;;;;;14.02;49.10;101827.13;4994257;28;20034;-60
2021/11/17 04:32:38;;;;;;;30.25;10.15;;;;;;;14.01;50.19;101814.66;4994962;28;20086;-60
2021/11/17 04:35:30;;;;;;;25.88;9.43;;;;;;;14.01;49.28;101817.34;4994162;28;20061;-61
2021/11/17 04:38:06;;;;;;;33.40;10.23;;;;;;;13.99;50.57;101832.75;4995016;28;20030;-60
2021/11/17 04:40:50;;;;;;;25.33;10.55;;;;;;;13.98;50.24;101837.31;4994870;28;20030;-61
2021/11/17 04:43:25;;;;;;;24.80;10.18;;;;;;;13.96;50.25;101833.88;4994934;28;20026;-60
2021/11/17 04:46:02;;;;;;;26.52;8.77;;;;;;;13.99;50.35;101838.16;4995314;28;20038;-61
2021/11/17 04:48:33;;;;;;;28.27;10.23;;;;;;;14.00;49.94;101840.75;4995028;28;20101;-61
2021/11/17 04:51:17;;;;;;;27.15;10.50;;;;;;;14.00;50.80;101829.09;4995179;28;20497;-61
2021/11/17 04:54:30;;;;;;;22.92;9.73;;;;;;;14.01;49.82;101825.44;4995064;28;20434;-61
2021/11/17 04:57:29;;;;;;;26.73;9.43;;;;;;;13.99;50.21;101824.69;4986330;28;20034;-61
2021/11/17 05:00:10;;;;;;;30.23;11.13;;;;;;;13.98;49.23;101825.69;4993668;28;20506;-61
2021/11/17 05:02:56;;;;;;;23.15;8.95;;;;;;;14.01;49.35;101825.44;4994960;28;20030;-61
2021/11/17 05:05:21;;;;;;;20.45;9.30;;;;;;;14.02;49.80;101832.50;4994611;28;20081;-61
2021/11/17 05:08:16;;;;;;;26.75;9.48;;;;;;;14.04;50.33;101814.41;4994614;28;20026;-61
2021/11/17 05:11:00;;;;;;;27.90;10.00;;;;;;;14.02;50.02;101803.75;4993606;28;20026;-62
2021/11/17 05:13:56;;;;;;;24.25;10.18;;;;;;;13.96;49.97;101801.56;4994678;28;20038;-61
2021/11/17 05:16:24;;;;;;;28.85;8.55;;;;;;;13.93;50.71;101791.03;4994292;28;20034;-61
2021/11/17 05:18:58;;;;;;;33.22;11.18;;;;;;;13.91;49.67;101797.53;4994837;28;20048;-61
2021/11/17 05:21:39;;;;;;;21.40;8.85;;;;;;;13.88;49.49;101782.47;4993509;28;20614;-61
2021/11/17 05:24:14;;;;;;;27.17;10.55;;;;;;;13.87;49.81;101796.09;4994794;28;20034;-61
2021/11/17 05:27:15;;;;;;;27.30;9.77;;;;;;;13.86;50.67;101813.22;4994569;28;20033;-61
2021/11/17 05:30:11;;;;;;;26.05;9.18;;;;;;;13.87;50.65;101818.47;4994618;28;20168;-61
2021/11/17 05:32:52;;;;;;;26.52;9.27;;;;;;;13.91;50.53;101813.69;4993701;28;20077;-61
2021/11/17 05:36:05;;;;;;;21.83;7.78;;;;;;;13.96;50.78;101817.72;4994768;28;20528;-61
2021/11/17 05:38:55;;;;;;;28.85;9.73;;;;;;;14.03;50.66;101815.38;4972917;28;20035;-61
2021/11/17 05:41:27;;;;;;;26.52;9.00;;;;;;;13.97;49.52;101799.72;4972925;28;20070;-61
2021/11/17 05:44:30;;;;;;;23.38;8.90;;;;;;;14.05;50.14;101788.28;4972751;28;20532;-61
2021/11/17 05:47:13;;;;;;;26.15;8.88;;;;;;;14.11;50.33;101796.72;4973363;28;20053;-61
2021/11/17 05:49:48;;;;;;;21.42;7.70;;;;;;;14.10;49.88;101789.63;4973136;28;20504;-61
2021/11/17 05:52:44;;;;;;;29.88;9.73;;;;;;;14.10;49.98;101791.50;4956738;28;20034;-61
2021/11/17 05:55:31;;;;;;;22.95;7.88;;;;;;;14.10;49.60;101781.53;4957548;28;20562;-61
2021/11/17 05:58:18;;;;;;;20.08;7.93;;;;;;;14.10;50.76;101786.94;4972905;28;20066;-60
2021/11/17 06:00:52;;;;;;;20.75;9.93;;;;;;;14.09;49.43;101787.94;4972885;28;20031;-61
2021/11/17 06:03:42;;;;;;;19.63;8.02;;;;;;;14.06;49.13;101774.72;4972520;28;20065;-61
2021/11/17 06:06:07;;;;;;;22.00;8.35;;;;;;;14.11;49.54;101785.97;4956780;28;20054;-60
2021/11/17 06:08:33;;;;;;;22.88;8.05;;;;;;;14.09;50.67;101784.38;4961286;28;20068;-61
2021/11/17 06:11:00;;;;;;;22.55;8.55;;;;;;;14.08;50.09;101778.13;4994476;28;20057;-61
2021/11/17 06:13:26;;;;;;;24.00;8.13;;;;;;;14.04;50.68;101771.31;4992851;28;20454;-61
2021/11/17 06:15:52;;;;;;;22.13;7.07;;;;;;;14.08;50.56;101771.88;4993252;28;20109;-61
2021/11/17 06:18:21;;;;;;;19.10;7.80;;;;;;;14.05;49.89;101754.13;4993878;28;20059;-61
2021/11/17 06:20:47;;;;;;;23.23;7.15;;;;;;;14.03;50.21;101753.41;4995232;28;20026;-61
2021/11/17 06:23:19;;;;;;;21.77;8.73;;;;;;;13.97;50.08;101748.53;4996805;28;20619;-61
2021/11/17 06:25:45;;;;;;;16.98;7.07;;;;;;;13.97;50.79;101744.00;4997374;28;20172;-61
2021/11/17 06:28:10;;;;;;;19.83;7.18;;;;;;;13.93;50.66;101741.72;4997820;28;20487;-61
2021/11/17 06:30:38;;;;;;;23.83;7.97;;;;;;;13.94;50.37;101756.88;4997576;28;20101;-61
2021/11/17 06:33:05;;;;;;;21.30;7.43;;;;;;;13.94;51.20;101763.13;5011465;28;20026;-61
2021/11/17 06:35:31;;;;;;;31.52;9.05;;;;;;;14.00;51.22;101772.53;5012400;28;20022;-61
2021/11/17 06:37:56;;;;;;;22.30;7.90;;;;;;;14.09;50.10;101776.28;4979628;28;20093;-62
2021/11/17 06:40:22;;;;;;;29.38;9.80;;;;;;;14.15;50.20;101790.13;4997517;28;20034;-61
2021/11/17 06:42:56;;;;;;;30.33;8.55;;;;;;;14.19;50.65;101796.06;5012264;28;20030;-61
2021/11/17 06:45:24;;;;;;;23.10;7.65;;;;;;;14.21;50.62;101803.06;4997251;28;20053;-61
2021/11/17 06:47:50;;;;;;;18.05;6.93;;;;;;;14.26;49.94;101802.69;4995383;28;20486;-61
2021/11/17 06:50:17;;;;;;;20.95;8.20;;;;;;;14.30;50.85;101810.38;4996611;28;20030;-61
2021/11/17 06:52:43;;;;;;;23.70;8.60;;;;;;;14.32;49.39;101808.44;4996646;28;20022;-61
2021/11/17 06:55:08;;;;;;;22.95;7.90;;;;;;;14.37;49.35;101805.34;4996905;28;20032;-61
2021/11/17 06:57:34;;;;;;;25.10;8.73;;;;;;;14.33;50.35;101802.06;4996945;28;20026;-62
2021/11/17 06:59:59;;;;;;;20.02;7.45;;;;;;;14.38;49.19;101807.91;4996425;28;20031;-61
2021/11/17 07:02:25;;;;;;;23.80;8.45;;;;;;;14.41;50.54;101818.44;4996443;28;20033;-61
2021/11/17 07:04:50;;;;;;;24.58;9.43;;;;;;;14.45;50.43;101813.66;4996643;28;20030;-61
2021/11/17 07:07:16;;;;;;;19.48;6.63;;;;;;;14.45;50.25;101811.81;4995988;28;20117;-61
2021/11/17 07:09:43;;;;;;;20.35;7.45;;;;;;;14.42;49.68;101811.22;5011796;28;20475;-62
2021/11/17 07:12:10;;;;;;;18.25;7.05;;;;;;;14.36;49.57;101801.81;5011523;28;20026;-61
2021/11/17 07:14:35;;;;;;;25.63;7.47;;;;;;;14.39;49.45;101811.47;4996135;28;20062;-61
2021/11/17 07:17:00;;;;;;;18.50;6.82;;;;;;;14.40;50.77;101811.34;4994666;28;20085;-61
2021/11/17 07:19:26;;;;;;;18.70;7.60;;;;;;;14.41;50.38;101802.25;4996125;28;20022;-61
2021/11/17 07:22:03;;;;;;;36.83;12.20;;;;;;;14.39;49.92;101809.63;4995944;28;20030;-61
2021/11/17 07:24:30;;;;;;;21.10;8.27;;;;;;;14.41;50.20;101813.03;4996056;28;20028;-61
2021/11/17 07:26:56;;;;;;;21.00;8.23;;;;;;;14.42;49.55;101817.47;4994634;28;20018;-60
2021/11/17 07:29:21;;;;;;;20.20;6.47;;;;;;;14.50;50.42;101819.50;4994781;28;20022;-61
2021/11/17 07:31:47;;;;;;;18.38;6.32;;;;;;;14.49;49.39;101831.25;4995947;28;20092;-61
2021/11/17 07:34:12;;;;;;;22.77;7.78;;;;;;;14.50;49.39;101843.78;4994595;28;20049;-61
2021/11/17 07:36:38;;;;;;;22.30;7.47;;;;;;;14.50;50.60;101833.84;4995955;28;20037;-62
2021/11/17 07:39:05;;;;;;;23.77;7.97;;;;;;;14.52;50.86;101831.00;4996306;28;20022;-61
2021/11/17 07:41:31;;;;;;;18.70;6.72;;;;;;;14.50;50.78;101828.44;4996246;28;20022;-61
2021/11/17 07:43:57;;;;;;;19.45;7.13;;;;;;;14.52;49.74;101839.94;4996649;28;20028;-61
2021/11/17 07:46:22;;;;;;;24.08;8.43;;;;;;;14.53;49.71;101833.59;4996180;28;20026;-62
2021/11/17 07:48:48;;;;;;;19.55;7.43;;;;;;;14.54;50.01;101835.28;4995713;28;20018;-62
2021/11/17 07:51:15;;;;;;;25.00;8.20;;;;;;;14.57;50.80;101845.81;4994143;28;20034;-61
2021/11/17 07:53:41;;;;;;;19.70;7.07;;;;;;;14.52;51.03;101847.19;4995619;28;20383;-61
2021/11/17 07:56:06;;;;;;;19.98;8.25;;;;;;;14.51;49.99;101851.75;4994282;28;20030;-61
2021/11/17 07:58:34;;;;;;;21.17;7.75;;;;;;;14.50;51.00;101866.19;4993872;28;20437;-61
2021/11/17 08:01:00;;;;;;;22.10;8.57;;;;;;;14.52;50.22;101864.22;5010416;28;20023;-62
2021/11/17 08:03:29;;;;;;;20.70;8.85;;;;;;;14.50;50.25;101854.56;4994035;28;20501;-61
2021/11/17 08:05:55;;;;;;;28.00;8.40;;;;;;;14.55;50.62;101857.72;4993787;28;20033;-60
2021/11/17 08:08:23;;;;;;;23.15;7.43;;;;;;;14.51;50.64;101848.19;5010407;28;20034;-61
2021/11/17 08:10:49;;;;;;;22.33;7.78;;;;;;;14.56;51.32;101857.59;4993837;28;20033;-61
2021/11/17 08:13:14;;;;;;;27.23;10.48;;;;;;;14.58;50.26;101860.16;4993780;28;20369;-61
2021/11/17 08:15:40;;;;;;;21.13;9.20;;;;;;;14.58;49.91;101861.00;4993888;28;20121;-61
2021/11/17 08:18:06;;;;;;;23.40;9.23;;;;;;;14.56;50.92;101868.38;4994738;28;20046;-61
2021/11/17 08:20:32;;;;;;;22.15;9.43;;;;;;;14.51;50.01;101857.13;5009890;28;20559;-61
2021/11/17 08:22:58;;;;;;;25.27;9.88;;;;;;;14.53;50.68;101859.69;4995553;28;20491;-61
2021/11/17 08:25:27;;;;;;;19.75;8.35;;;;;;;14.52;50.34;101856.13;5010186;28;20031;-61
2021/11/17 08:27:53;;;;;;;19.63;8.05;;;;;;;14.58;51.41;101877.19;4993713;28;20018;-61
2021/11/17 08:30:20;;;;;;;20.92;8.48;;;;;;;14.60;51.37;101870.81;4994916;28;20026;-61
2021/11/17 08:32:46;;;;;;;23.77;7.57;;;;;;;14.56;50.55;101863.00;4994507;28;20052;-60
2021/11/17 08:35:14;;;;;;;20.63;8.23;;;;;;;14.53;51.04;101854.28;4993110;28;20027;-60
2021/11/17 08:37:40;;;;;;;23.65;7.82;;;;;;;14.55;50.89;101863.97;4994493;28;20430;-59
2021/11/17 08:40:20;;;;;;;25.42;8.13;;;;;;;14.56;49.99;101863.00;4994717;28;20132;-61
2021/11/17 08:42:46;;;;;;;22.63;8.25;;;;;;;14.59;50.45;101864.56;4993405;28;20026;-60
2021/11/17 08:45:12;;;;;;;21.05;8.25;;;;;;;14.62;50.91;101868.84;4994452;28;20033;-60
2021/11/17 08:47:39;;;;;;;20.27;7.68;;;;;;;14.67;51.31;101867.47;4994896;28;20486;-60
2021/11/17 08:50:06;;;;;;;20.27;8.45;;;;;;;14.71;51.06;101859.97;4995003;28;20038;-60
2021/11/17 08:52:32;;;;;;;18.65;7.93;;;;;;;14.70;51.34;101858.25;4977072;28;20028;-60
2021/11/17 08:54:57;;;;;;;17.63;8.60;;;;;;;14.81;50.05;101877.06;4993504;28;20022;-60
2021/11/17 08:57:22;;;;;;;23.23;8.82;;;;;;;14.86;51.28;101872.13;4994767;28;20077;-60
2021/11/17 08:59:52;;;;;;;20.85;8.43;;;;;;;14.86;51.43;101858.66;4994496;28;20033;-60
2021/11/17 09:02:18;;;;;;;21.48;8.63;;;;;;;14.95;51.32;101865.97;4994296;28;20513;-60
2021/11/17 09:04:44;;;;;;;21.25;8.77;;;;;;;15.00;51.57;101861.03;4993169;28;20117;-60
2021/11/17 09:07:11;;;;;;;21.77;8.88;;;;;;;15.01;51.66;101871.69;4994235;28;20113;-60
2021/11/17 09:09:36;;;;;;;19.27;8.43;;;;;;;15.06;50.61;101868.59;4993189;28;20030;-61
2021/11/17 09:12:02;;;;;;;21.40;8.25;;;;;;;15.07;50.32;101870.31;4994668;28;20026;-60
2021/11/17 09:14:27;;;;;;;20.70;7.70;;;;;;;15.10;50.18;101880.84;4992939;28;20025;-60
2021/11/17 09:16:53;;;;;;;23.50;8.70;;;;;;;15.09;51.96;101869.19;4993022;28;20058;-60
2021/11/17 09:19:20;;;;;;;20.77;8.18;;;;;;;15.09;51.71;101860.22;4994299;28;20030;-60
2021/11/17 09:21:46;;;;;;;19.02;8.00;;;;;;;15.11;50.47;101860.94;4993089;28;20049;-60
2021/11/17 09:24:15;;;;;;;19.77;8.60;;;;;;;15.12;50.26;101868.06;4994260;28;20023;-59
2021/11/17 09:26:41;;;;;;;28.75;8.85;;;;;;;15.15;51.90;101870.50;4994238;28;20019;-60
2021/11/17 09:29:06;;;;;;;22.48;8.27;;;;;;;15.18;51.17;101867.53;4994399;28;20391;-60
2021/11/17 09:31:34;;;;;;;19.42;8.27;;;;;;;15.20;50.88;101865.56;4994483;28;20029;-60
2021/11/17 09:34:00;;;;;;;21.83;9.35;;;;;;;15.22;51.89;101868.09;4993087;28;20026;-61
2021/11/17 09:36:27;;;;;;;23.20;8.50;;;;;;;15.23;50.46;101870.69;4994636;28;20077;-60
2021/11/17 09:38:55;;;;;;;22.83;9.23;;;;;;;15.22;50.79;101863.56;5009526;28;20031;-61
2021/11/17 09:41:25;;;;;;;23.33;8.75;;;;;;;15.27;51.45;101866.72;4994738;28;20057;-60
2021/11/17 09:43:54;;;;;;;24.15;8.90;;;;;;;15.30;52.00;101861.03;4994368;28;20477;-61
2021/11/17 09:46:21;;;;;;;20.20;8.32;;;;;;;15.32;51.44;101869.88;4994196;28;20078;-61
2021/11/17 09:48:50;;;;;;;26.75;9.32;;;;;;;15.36;52.09;101876.72;4993057;28;20085;-61
2021/11/17 09:51:18;;;;;;;24.13;9.10;;;;;;;15.36;52.10;101895.63;4994714;28;20032;-60
2021/11/17 09:54:13;;;;;;;27.15;9.98;;;;;;;15.42;50.93;101900.47;4994238;28;20029;-60
2021/11/17 09:56:40;;;;;;;19.48;7.47;;;;;;;15.45;51.36;101913.72;4997296;28;20026;-61
2021/11/17 09:59:17;;;;;;;25.33;9.43;;;;;;;15.44;50.57;101906.59;4997942;28;20041;-60
2021/11/17 10:01:57;;;;;;;26.65;9.40;;;;;;;15.43;51.36;101904.03;5013069;28;20022;-61
2021/11/17 10:04:27;;;;;;;23.58;9.32;;;;;;;15.52;50.74;101923.00;4996613;28;20042;-61
2021/11/17 10:13:01;;;;;;;48.05;16.95;;;;;;;15.64;52.02;101932.75;4985650;28;20046;-60
2021/11/17 10:15:36;;;;;;;38.83;16.48;;;;;;;15.67;52.09;101928.91;4997546;28;20030;-60
2021/11/17 10:18:39;;;;;;;43.95;16.67;;;;;;;15.71;50.84;101931.22;4995943;28;20100;-60
2021/11/17 10:21:10;;;;;;;37.03;13.75;;;;;;;15.67;51.43;101927.06;4994909;28;20034;-60
2021/11/17 10:23:42;;;;;;;34.65;13.90;;;;;;;15.74;50.82;101927.41;4997495;28;20025;-61
2021/11/17 10:26:13;;;;;;;29.55;11.80;;;;;;;15.74;50.60;101925.53;4996037;28;20423;-60
2021/11/17 10:28:49;;;;;;;29.73;12.35;;;;;;;15.78;51.99;101926.13;4996912;28;20072;-60
2021/11/17 10:31:29;;;;;;;31.80;9.98;;;;;;;15.81;51.05;101931.25;4996999;28;20026;-61
2021/11/17 10:34:00;;;;;;;25.60;9.43;;;;;;;15.86;51.10;101928.13;4997255;28;20097;-61
2021/11/17 10:36:46;;;;;;;21.33;8.70;;;;;;;15.89;52.35;101923.31;4997127;28;20054;-60
2021/11/17 10:39:17;;;;;;;30.95;9.60;;;;;;;15.93;50.84;101929.31;4996848;28;20052;-61
2021/11/17 10:42:14;;;;;;;33.20;10.68;;;;;;;15.99;52.45;101923.38;4996796;28;20096;-61
2021/11/17 10:45:11;;;;;;;28.73;10.38;;;;;;;16.01;52.29;101919.53;4982491;28;20045;-61
2021/11/17 10:47:54;;;;;;;31.75;10.15;;;;;;;16.06;51.48;101929.91;4996509;28;20545;-61
2021/11/17 10:50:23;;;;;;;26.00;8.52;;;;;;;16.09;50.89;101933.22;4996485;28;20382;-61
2021/11/17 10:53:04;;;;;;;23.05;9.52;;;;;;;16.11;51.68;101933.06;4996413;28;20498;-61
2021/11/17 10:55:32;;;;;;;25.90;9.43;;;;;;;16.05;51.27;101912.00;4995242;28;20026;-61
2021/11/17 10:57:57;;;;;;;30.55;11.07;;;;;;;16.03;51.25;101904.03;4995003;28;20026;-61
2021/11/17 11:00:30;;;;;;;25.02;8.35;;;;;;;16.19;51.60;101930.56;4996474;28;20364;-60
2021/11/17 11:02:57;;;;;;;29.85;11.38;;;;;;;16.22;51.48;101924.84;4996585;28;20473;-62
2021/11/17 11:05:25;;;;;;;27.58;9.32;;;;;;;16.22;51.45;101930.25;4996437;28;20049;-61
2021/11/17 11:08:00;;;;;;;30.73;9.82;;;;;;;16.20;50.89;101924.13;5011085;28;20022;-61
2021/11/17 11:10:35;;;;;;;28.83;10.45;;;;;;;16.24;51.98;101920.16;4996625;28;20023;-61
2021/11/17 11:13:03;;;;;;;26.52;9.18;;;;;;;16.29;52.04;101926.00;4996394;28;20027;-61
2021/11/17 11:15:31;;;;;;;27.08;9.95;;;;;;;16.31;52.30;101914.06;5011063;28;20034;-61
2021/11/17 11:18:06;;;;;;;31.50;10.90;;;;;;;16.36;51.01;101913.63;4995457;28;20079;-61
2021/11/17 11:20:52;;;;;;;27.45;10.27;;;;;;;16.39;52.02;101905.25;4995745;28;20391;-61
2021/11/17 11:23:17;;;;;;;32.30;10.35;;;;;;;16.44;52.04;101913.81;4995938;28;20026;-62
2021/11/17 11:26:06;;;;;;;29.98;10.93;;;;;;;16.48;51.27;101920.63;4996206;28;20436;-61
2021/11/17 11:28:31;;;;;;;26.92;9.23;;;;;;;16.50;52.52;101907.81;4995950;28;20023;-61
2021/11/17 11:31:12;;;;;;;30.85;11.10;;;;;;;16.55;51.32;101919.13;4994670;28;20053;-61
2021/11/17 11:34:10;;;;;;;27.58;9.95;;;;;;;16.59;51.91;101917.81;4995684;28;20081;-61
2021/11/17 11:36:48;;;;;;;30.58;10.70;;;;;;;16.59;51.56;101919.66;4980236;28;20042;-61
2021/11/17 11:39:14;;;;;;;36.55;12.93;;;;;;;16.57;52.64;101930.66;4994406;28;20034;-61
2021/11/17 11:42:08;;;;;;;29.65;12.25;;;;;;;16.55;52.54;101938.06;4994224;28;20112;-62
2021/11/17 11:44:40;;;;;;;48.83;16.90;;;;;;;16.55;52.42;101932.66;4995793;28;20023;-62
2021/11/17 11:47:09;;;;;;;61.47;20.33;;;;;;;16.58;51.21;101928.81;4994532;28;20027;-61
2021/11/17 11:49:40;;;;;;;36.50;12.57;;;;;;;16.58;51.45;101929.63;4995583;28;20030;-61
2021/11/17 11:52:26;;;;;;;37.50;14.20;;;;;;;16.60;51.88;101930.38;4995633;28;20483;-62
2021/11/17 11:54:51;;;;;;;34.72;12.13;;;;;;;16.63;51.87;101930.09;4996160;28;20483;-61
2021/11/17 11:57:32;;;;;;;27.45;10.95;;;;;;;16.67;52.33;101926.09;4995648;28;20084;-62
2021/11/17 12:00:21;;;;;;;28.65;9.43;;;;;;;16.68;51.92;101933.22;4995413;28;20084;-62
2021/11/17 12:03:00;;;;;;;28.75;9.10;;;;;;;16.67;52.24;101936.91;4996343;28;20023;-61
2021/11/17 12:05:32;;;;;;;28.35;9.05;;;;;;;16.70;51.10;101931.22;4994016;28;20033;-61
2021/11/17 12:08:17;;;;;;;25.20;9.70;;;;;;;16.72;52.06;101934.63;4994308;28;20041;-61
2021/11/17 12:10:46;;;;;;;33.90;9.60;;;;;;;16.75;51.56;101933.50;4993986;28;20256;-61
2021/11/17 12:13:24;;;;;;;26.38;8.55;;;;;;;16.77;51.52;101935.06;5010533;28;20033;-61
2021/11/17 12:16:22;;;;;;;26.45;9.30;;;;;;;16.80;52.94;101936.63;4995814;28;20034;-61
2021/11/17 12:18:47;;;;;;;24.92;10.57;;;;;;;16.79;52.47;101941.19;4994630;28;20034;-61
2021/11/17 12:21:24;;;;;;;31.92;10.57;;;;;;;16.77;51.82;101931.50;4995779;28;20085;-61
2021/11/17 12:24:13;;;;;;;28.77;9.77;;;;;;;16.82;52.09;101940.91;4995254;28;20370;-61
2021/11/17 12:26:47;;;;;;;34.55;10.95;;;;;;;16.84;52.36;101943.47;4994943;28;20383;-61
2021/11/17 12:29:22;;;;;;;31.30;10.43;;;;;;;16.84;51.81;101938.91;5009946;28;20058;-61
2021/11/17 12:32:25;;;;;;;35.22;13.57;;;;;;;16.85;51.75;101946.03;5010362;28;20034;-61
2021/11/17 12:35:14;;;;;;;35.55;9.50;;;;;;;16.83;53.04;101941.78;4994991;28;20022;-61
2021/11/17 12:38:03;;;;;;;35.13;10.77;;;;;;;16.82;52.64;101935.50;4995123;28;20035;-61
2021/11/17 12:40:32;;;;;;;36.60;10.77;;;;;;;16.82;51.50;101954.44;4994632;28;20033;-61
2021/11/17 12:42:59;;;;;;;28.48;10.02;;;;;;;16.78;51.92;101939.47;4993278;28;20042;-61
2021/11/17 12:45:28;;;;;;;24.23;10.38;;;;;;;16.85;52.62;101947.88;4994507;28;20027;-61
2021/11/17 12:48:07;;;;;;;29.15;10.13;;;;;;;16.88;51.67;101947.59;4994469;28;20033;-61
2021/11/17 12:50:42;;;;;;;32.05;9.73;;;;;;;16.88;53.03;101937.63;5009497;28;20026;-61
2021/11/17 12:53:25;;;;;;;36.00;11.15;;;;;;;16.92;52.44;101940.91;4993443;28;20030;-66
2021/11/17 12:55:54;;;;;;;30.55;10.00;;;;;;;16.93;52.75;101941.75;5009517;28;20515;-61
2021/11/17 12:58:55;;;;;;;32.88;10.68;;;;;;;16.94;51.85;101938.91;4993044;28;20125;-61
2021/11/17 13:01:29;;;;;;;26.73;9.88;;;;;;;16.96;51.70;101946.88;4972815;28;20038;-61
2021/11/17 13:04:00;;;;;;;38.05;11.55;;;;;;;16.99;52.07;101952.00;4994545;28;20530;-61
2021/11/17 13:06:48;;;;;;;26.40;8.77;;;;;;;17.05;51.96;101948.75;4994109;28;20475;-61
2021/11/17 13:09:32;;;;;;;36.05;11.85;;;;;;;17.07;52.19;101955.72;4994427;28;20054;-61
2021/11/17 13:12:01;;;;;;;31.00;10.48;;;;;;;17.08;52.37;101951.16;4995076;28;20036;-62
2021/11/17 13:14:44;;;;;;;31.55;10.10;;;;;;;17.09;51.97;101963.69;4994190;28;20498;-60
2021/11/17 13:17:23;;;;;;;25.13;9.90;;;;;;;17.07;51.82;101954.84;4993786;28;20054;-61
2021/11/17 13:19:52;;;;;;;25.65;10.38;;;;;;;17.06;52.80;101959.41;4992906;28;20037;-61
2021/11/17 13:22:21;;;;;;;28.10;10.75;;;;;;;17.05;52.13;101971.25;4994104;28;20033;-61
2021/11/17 13:24:49;;;;;;;26.73;10.13;;;;;;;17.06;52.75;101974.78;4993308;28;20110;-61
2021/11/17 13:27:22;;;;;;;33.15;10.40;;;;;;;17.01;51.96;101960.84;4993041;28;20547;-61
2021/11/17 13:29:50;;;;;;;36.20;11.43;;;;;;;17.11;51.43;101975.25;4995315;28;20026;-61
2021/11/17 13:32:42;;;;;;;24.42;10.27;;;;;;;17.13;53.02;101973.25;4999699;28;20034;-62
2021/11/17 13:35:26;;;;;;;31.75;10.20;;;;;;;17.14;51.72;101977.66;4995995;28;20022;-61
2021/11/17 13:38:15;;;;;;;34.28;11.15;;;;;;;17.14;52.75;101977.66;4997716;28;20375;-61
2021/11/17 13:40:42;;;;;;;29.55;10.77;;;;;;;17.15;52.69;101979.34;4997806;28;20027;-61
2021/11/17 13:43:09;;;;;;;34.40;11.82;;;;;;;17.11;52.71;101988.78;4997894;28;20038;-61
2021/11/17 13:45:34;;;;;;;27.05;10.02;;;;;;;17.10;51.88;101985.22;4997913;28;20026;-61
2021/11/17 13:48:00;;;;;;;28.05;11.52;;;;;;;17.14;52.16;101981.22;4998137;28;20077;-61
2021/11/17 13:50:30;;;;;;;32.08;10.48;;;;;;;17.19;51.45;101972.66;4996682;28;20026;-62
2021/11/17 13:52:57;;;;;;;29.35;11.13;;;;;;;17.22;52.42;101980.50;4997681;28;20034;-61
2021/11/17 13:55:25;;;;;;;33.63;11.82;;;;;;;17.28;52.63;101974.53;4996373;28;20022;-61
2021/11/17 13:57:52;;;;;;;29.55;10.20;;;;;;;17.29;51.83;101976.22;4997489;28;20018;-61
2021/11/17 14:00:19;;;;;;;21.80;9.88;;;;;;;17.33;51.68;101977.66;4997716;28;20026;-61
2021/11/17 14:02:47;;;;;;;31.05;10.30;;;;;;;17.35;51.88;101964.81;4996224;28;20029;-61
2021/11/17 14:05:14;;;;;;;30.10;11.07;;;;;;;17.42;51.84;101974.91;4997728;28;20053;-61
2021/11/17 14:07:39;;;;;;;25.17;10.75;;;;;;;17.47;52.04;101975.31;4996331;28;20022;-61
2021/11/17 14:10:07;;;;;;;28.42;10.45;;;;;;;17.48;52.26;101965.34;4996484;28;20084;-61
2021/11/17 14:12:33;;;;;;;27.77;11.00;;;;;;;17.46;52.27;101968.22;4997242;28;20032;-61
2021/11/17 14:14:58;;;;;;;30.33;11.63;;;;;;;17.52;52.19;101976.75;4997495;28;20434;-61
2021/11/17 14:17:24;;;;;;;25.83;11.02;;;;;;;17.49;51.59;101967.06;4997315;28;20066;-61
2021/11/17 14:19:50;;;;;;;26.25;10.70;;;;;;;17.56;52.62;101972.78;4997287;28;20394;-61
2021/11/17 14:22:15;;;;;;;29.88;11.13;;;;;;;17.58;51.84;101974.34;4997472;28;20031;-61